sensor_id;sensor_type;location;lat;lon;timestamp;P1;durP1;ratioP1;P2;durP2;ratioP2
62844;SDS011;48929;47.910;20.390;2022-11-11T00:02:29;33.55;;;15.60;;
62844;SDS011;48929;47.910;20.390;2022-11-11T00:04:57;33.83;;;14.90;;
62844;SDS011;48929;47.910;20.390;2022-11-11T00:07:26;33.22;;;14.55;;
62844;SDS011;48929;47.910;20.390;2022-11-11T00:09:54;36.20;;;16.05;;
62844;SDS011;48929;47.910;20.390;2022-11-11T00:12:24;38.72;;;16.58;;
62844;SDS011;48929;47.910;20.390;2022-11-11T00:14:53;38.03;;;16.63;;
62844;SDS011;48929;47.910;20.390;2022-11-11T00:17:21;38.28;;;15.38;;
62844;SDS011;48929;47.910;20.390;2022-11-11T00:20:07;38.40;;;17.48;;
62844;SDS011;48929;47.910;20.390;2022-11-11T00:22:57;39.47;;;16.65;;
62844;SDS011;48929;47.910;20.390;2022-11-11T00:25:43;44.08;;;17.80;;
62844;SDS011;48929;47.910;20.390;2022-11-11T00:28:14;43.28;;;17.45;;
62844;SDS011;48929;47.910;20.390;2022-11-11T00:30:43;44.78;;;17.83;;
62844;SDS011;48929;47.910;20.390;2022-11-11T00:33:12;40.72;;;15.77;;
62844;SDS011;48929;47.910;20.390;2022-11-11T00:35:40;39.30;;;15.55;;
62844;SDS011;48929;47.910;20.390;2022-11-11T00:38:19;37.92;;;16.10;;
62844;SDS011;48929;47.910;20.390;2022-11-11T00:41:05;38.83;;;15.90;;
62844;SDS011;48929;47.910;20.390;2022-11-11T00:43:35;34.35;;;16.23;;
62844;SDS011;48929;47.910;20.390;2022-11-11T00:46:03;36.72;;;15.63;;
62844;SDS011;48929;47.910;20.390;2022-11-11T00:48:52;35.92;;;15.57;;
62844;SDS011;48929;47.910;20.390;2022-11-11T00:51:37;46.20;;;16.83;;
62844;SDS011;48929;47.910;20.390;2022-11-11T00:54:06;38.03;;;16.30;;
62844;SDS011;48929;47.910;20.390;2022-11-11T00:56:35;37.88;;;16.70;;
62844;SDS011;48929;47.910;20.390;2022-11-11T00:59:05;43.13;;;17.38;;
62844;SDS011;48929;47.910;20.390;2022-11-11T01:01:35;38.63;;;16.60;;
62844;SDS011;48929;47.910;20.390;2022-11-11T01:04:04;35.72;;;15.65;;
62844;SDS011;48929;47.910;20.390;2022-11-11T01:06:32;37.35;;;16.27;;
62844;SDS011;48929;47.910;20.390;2022-11-11T01:09:03;40.53;;;16.33;;
62844;SDS011;48929;47.910;20.390;2022-11-11T01:11:32;43.10;;;16.80;;
62844;SDS011;48929;47.910;20.390;2022-11-11T01:14:00;33.70;;;15.20;;
62844;SDS011;48929;47.910;20.390;2022-11-11T01:16:30;35.70;;;16.20;;
62844;SDS011;48929;47.910;20.390;2022-11-11T01:18:58;35.60;;;16.27;;
62844;SDS011;48929;47.910;20.390;2022-11-11T01:21:26;35.85;;;15.73;;
62844;SDS011;48929;47.910;20.390;2022-11-11T01:23:55;35.88;;;16.02;;
62844;SDS011;48929;47.910;20.390;2022-11-11T01:26:24;40.53;;;16.85;;
62844;SDS011;48929;47.910;20.390;2022-11-11T01:28:57;33.53;;;15.07;;
62844;SDS011;48929;47.910;20.390;2022-11-11T01:31:26;39.42;;;15.82;;
62844;SDS011;48929;47.910;20.390;2022-11-11T01:33:56;32.45;;;15.48;;
62844;SDS011;48929;47.910;20.390;2022-11-11T01:36:25;33.67;;;15.93;;
62844;SDS011;48929;47.910;20.390;2022-11-11T01:38:54;36.25;;;15.80;;
62844;SDS011;48929;47.910;20.390;2022-11-11T01:41:24;39.15;;;15.75;;
62844;SDS011;48929;47.910;20.390;2022-11-11T01:44:06;36.65;;;15.73;;
62844;SDS011;48929;47.910;20.390;2022-11-11T01:46:42;37.40;;;15.75;;
62844;SDS011;48929;47.910;20.390;2022-11-11T01:49:17;36.15;;;15.35;;
62844;SDS011;48929;47.910;20.390;2022-11-11T01:51:57;35.58;;;15.73;;
62844;SDS011;48929;47.910;20.390;2022-11-11T01:54:28;41.50;;;15.27;;
62844;SDS011;48929;47.910;20.390;2022-11-11T01:56:58;40.72;;;16.90;;
62844;SDS011;48929;47.910;20.390;2022-11-11T01:59:28;43.97;;;16.23;;
62844;SDS011;48929;47.910;20.390;2022-11-11T02:01:59;43.33;;;16.58;;
62844;SDS011;48929;47.910;20.390;2022-11-11T02:04:31;42.45;;;17.25;;
62844;SDS011;48929;47.910;20.390;2022-11-11T02:07:17;36.47;;;16.45;;
62844;SDS011;48929;47.910;20.390;2022-11-11T02:09:46;37.15;;;16.55;;
62844;SDS011;48929;47.910;20.390;2022-11-11T02:12:14;38.47;;;16.40;;
62844;SDS011;48929;47.910;20.390;2022-11-11T02:15:00;37.30;;;16.93;;
62844;SDS011;48929;47.910;20.390;2022-11-11T02:17:32;42.38;;;18.20;;
62844;SDS011;48929;47.910;20.390;2022-11-11T02:20:02;37.97;;;16.42;;
62844;SDS011;48929;47.910;20.390;2022-11-11T02:22:33;39.50;;;16.75;;
62844;SDS011;48929;47.910;20.390;2022-11-11T02:25:06;41.40;;;16.35;;
62844;SDS011;48929;47.910;20.390;2022-11-11T02:27:36;40.35;;;16.73;;
62844;SDS011;48929;47.910;20.390;2022-11-11T02:30:05;41.17;;;17.02;;
62844;SDS011;48929;47.910;20.390;2022-11-11T02:32:42;55.95;;;18.42;;
62844;SDS011;48929;47.910;20.390;2022-11-11T02:35:12;50.45;;;18.05;;
62844;SDS011;48929;47.910;20.390;2022-11-11T02:37:40;50.78;;;17.60;;
62844;SDS011;48929;47.910;20.390;2022-11-11T02:40:12;49.78;;;17.35;;
62844;SDS011;48929;47.910;20.390;2022-11-11T02:42:41;43.35;;;16.67;;
62844;SDS011;48929;47.910;20.390;2022-11-11T02:45:10;46.70;;;17.77;;
62844;SDS011;48929;47.910;20.390;2022-11-11T02:47:38;47.38;;;17.85;;
62844;SDS011;48929;47.910;20.390;2022-11-11T02:50:07;47.40;;;16.95;;
62844;SDS011;48929;47.910;20.390;2022-11-11T02:52:36;45.55;;;16.95;;
62844;SDS011;48929;47.910;20.390;2022-11-11T02:55:06;45.40;;;17.05;;
62844;SDS011;48929;47.910;20.390;2022-11-11T02:57:36;38.40;;;16.23;;
62844;SDS011;48929;47.910;20.390;2022-11-11T03:00:04;36.35;;;15.85;;
62844;SDS011;48929;47.910;20.390;2022-11-11T03:02:33;33.08;;;15.60;;
62844;SDS011;48929;47.910;20.390;2022-11-11T03:05:02;34.90;;;15.18;;
62844;SDS011;48929;47.910;20.390;2022-11-11T03:07:30;35.08;;;15.50;;
62844;SDS011;48929;47.910;20.390;2022-11-11T03:09:59;32.45;;;14.40;;
62844;SDS011;48929;47.910;20.390;2022-11-11T03:12:27;36.05;;;15.43;;
62844;SDS011;48929;47.910;20.390;2022-11-11T03:14:57;38.25;;;15.50;;
62844;SDS011;48929;47.910;20.390;2022-11-11T03:17:25;35.03;;;15.05;;
62844;SDS011;48929;47.910;20.390;2022-11-11T03:20:06;38.05;;;15.82;;
62844;SDS011;48929;47.910;20.390;2022-11-11T03:22:58;36.78;;;16.13;;
62844;SDS011;48929;47.910;20.390;2022-11-11T03:25:27;40.55;;;16.25;;
62844;SDS011;48929;47.910;20.390;2022-11-11T03:28:07;40.17;;;15.85;;
62844;SDS011;48929;47.910;20.390;2022-11-11T03:30:38;36.40;;;15.25;;
62844;SDS011;48929;47.910;20.390;2022-11-11T03:33:06;32.03;;;15.00;;
62844;SDS011;48929;47.910;20.390;2022-11-11T03:35:35;33.75;;;14.02;;
62844;SDS011;48929;47.910;20.390;2022-11-11T03:38:05;35.53;;;14.52;;
62844;SDS011;48929;47.910;20.390;2022-11-11T03:40:41;38.45;;;15.60;;
62844;SDS011;48929;47.910;20.390;2022-11-11T03:43:09;29.85;;;13.90;;
62844;SDS011;48929;47.910;20.390;2022-11-11T03:45:39;35.25;;;14.77;;
62844;SDS011;48929;47.910;20.390;2022-11-11T03:48:08;37.05;;;14.48;;
62844;SDS011;48929;47.910;20.390;2022-11-11T03:50:38;35.53;;;14.18;;
62844;SDS011;48929;47.910;20.390;2022-11-11T03:53:07;37.33;;;15.73;;
62844;SDS011;48929;47.910;20.390;2022-11-11T03:55:35;34.58;;;15.07;;
62844;SDS011;48929;47.910;20.390;2022-11-11T03:58:03;34.60;;;14.73;;
62844;SDS011;48929;47.910;20.390;2022-11-11T04:00:32;36.53;;;15.25;;
62844;SDS011;48929;47.910;20.390;2022-11-11T04:03:02;35.72;;;15.35;;
62844;SDS011;48929;47.910;20.390;2022-11-11T04:05:49;37.03;;;14.52;;
62844;SDS011;48929;47.910;20.390;2022-11-11T04:08:43;41.22;;;15.30;;
62844;SDS011;48929;47.910;20.390;2022-11-11T04:11:29;36.15;;;15.75;;
62844;SDS011;48929;47.910;20.390;2022-11-11T04:14:00;39.58;;;16.90;;
62844;SDS011;48929;47.910;20.390;2022-11-11T04:16:46;36.65;;;15.60;;
62844;SDS011;48929;47.910;20.390;2022-11-11T04:19:16;37.60;;;16.95;;
62844;SDS011;48929;47.910;20.390;2022-11-11T04:21:58;40.97;;;16.85;;
62844;SDS011;48929;47.910;20.390;2022-11-11T04:24:26;42.05;;;16.65;;
62844;SDS011;48929;47.910;20.390;2022-11-11T04:27:12;41.58;;;17.17;;
62844;SDS011;48929;47.910;20.390;2022-11-11T04:29:40;40.08;;;16.30;;
62844;SDS011;48929;47.910;20.390;2022-11-11T04:32:08;39.42;;;16.55;;
62844;SDS011;48929;47.910;20.390;2022-11-11T04:34:56;34.83;;;15.13;;
62844;SDS011;48929;47.910;20.390;2022-11-11T04:37:26;38.88;;;16.30;;
62844;SDS011;48929;47.910;20.390;2022-11-11T04:39:54;35.75;;;15.30;;
62844;SDS011;48929;47.910;20.390;2022-11-11T04:42:40;36.27;;;15.83;;
62844;SDS011;48929;47.910;20.390;2022-11-11T04:45:09;36.47;;;14.95;;
62844;SDS011;48929;47.910;20.390;2022-11-11T04:47:57;40.25;;;16.02;;
62844;SDS011;48929;47.910;20.390;2022-11-11T04:50:29;38.25;;;15.43;;
62844;SDS011;48929;47.910;20.390;2022-11-11T04:52:57;36.17;;;15.95;;
62844;SDS011;48929;47.910;20.390;2022-11-11T04:55:26;40.47;;;16.88;;
62844;SDS011;48929;47.910;20.390;2022-11-11T04:58:12;39.80;;;16.88;;
62844;SDS011;48929;47.910;20.390;2022-11-11T05:00:40;40.10;;;17.08;;
62844;SDS011;48929;47.910;20.390;2022-11-11T05:03:09;36.63;;;15.63;;
62844;SDS011;48929;47.910;20.390;2022-11-11T05:05:44;39.30;;;15.60;;
62844;SDS011;48929;47.910;20.390;2022-11-11T05:08:30;38.40;;;15.75;;
62844;SDS011;48929;47.910;20.390;2022-11-11T05:11:16;39.05;;;17.73;;
62844;SDS011;48929;47.910;20.390;2022-11-11T05:13:45;40.08;;;16.70;;
62844;SDS011;48929;47.910;20.390;2022-11-11T05:16:32;40.88;;;16.55;;
62844;SDS011;48929;47.910;20.390;2022-11-11T05:19:18;43.15;;;18.08;;
62844;SDS011;48929;47.910;20.390;2022-11-11T05:22:07;38.53;;;17.50;;
62844;SDS011;48929;47.910;20.390;2022-11-11T05:24:36;41.17;;;17.70;;
62844;SDS011;48929;47.910;20.390;2022-11-11T05:27:24;40.60;;;17.35;;
62844;SDS011;48929;47.910;20.390;2022-11-11T05:29:52;38.50;;;16.88;;
62844;SDS011;48929;47.910;20.390;2022-11-11T05:32:22;38.53;;;17.08;;
62844;SDS011;48929;47.910;20.390;2022-11-11T05:34:50;36.50;;;16.10;;
62844;SDS011;48929;47.910;20.390;2022-11-11T05:37:21;36.10;;;16.52;;
62844;SDS011;48929;47.910;20.390;2022-11-11T05:39:49;40.30;;;16.40;;
62844;SDS011;48929;47.910;20.390;2022-11-11T05:42:18;37.03;;;17.02;;
62844;SDS011;48929;47.910;20.390;2022-11-11T05:44:46;40.20;;;16.05;;
62844;SDS011;48929;47.910;20.390;2022-11-11T05:47:15;37.20;;;15.95;;
62844;SDS011;48929;47.910;20.390;2022-11-11T05:49:43;40.10;;;15.52;;
62844;SDS011;48929;47.910;20.390;2022-11-11T05:52:12;38.63;;;15.75;;
62844;SDS011;48929;47.910;20.390;2022-11-11T05:54:43;39.40;;;17.40;;
62844;SDS011;48929;47.910;20.390;2022-11-11T05:57:12;40.22;;;18.67;;
62844;SDS011;48929;47.910;20.390;2022-11-11T05:59:41;49.42;;;21.70;;
62844;SDS011;48929;47.910;20.390;2022-11-11T06:02:10;51.03;;;21.50;;
62844;SDS011;48929;47.910;20.390;2022-11-11T06:04:41;49.38;;;20.15;;
62844;SDS011;48929;47.910;20.390;2022-11-11T06:07:09;46.42;;;19.52;;
62844;SDS011;48929;47.910;20.390;2022-11-11T06:09:37;44.75;;;18.95;;
62844;SDS011;48929;47.910;20.390;2022-11-11T06:12:07;42.38;;;19.23;;
62844;SDS011;48929;47.910;20.390;2022-11-11T06:14:36;39.80;;;18.70;;
62844;SDS011;48929;47.910;20.390;2022-11-11T06:17:04;41.63;;;18.48;;
62844;SDS011;48929;47.910;20.390;2022-11-11T06:19:33;42.55;;;17.85;;
62844;SDS011;48929;47.910;20.390;2022-11-11T06:22:01;46.95;;;20.38;;
62844;SDS011;48929;47.910;20.390;2022-11-11T06:24:30;53.97;;;23.20;;
62844;SDS011;48929;47.910;20.390;2022-11-11T06:27:01;50.22;;;21.90;;
62844;SDS011;48929;47.910;20.390;2022-11-11T06:29:30;50.30;;;22.42;;
62844;SDS011;48929;47.910;20.390;2022-11-11T06:31:58;53.25;;;22.63;;
62844;SDS011;48929;47.910;20.390;2022-11-11T06:34:26;56.72;;;25.02;;
62844;SDS011;48929;47.910;20.390;2022-11-11T06:36:56;61.08;;;26.60;;
62844;SDS011;48929;47.910;20.390;2022-11-11T06:39:24;61.88;;;27.80;;
62844;SDS011;48929;47.910;20.390;2022-11-11T06:41:53;74.57;;;32.72;;
62844;SDS011;48929;47.910;20.390;2022-11-11T06:44:22;101.85;;;42.10;;
62844;SDS011;48929;47.910;20.390;2022-11-11T06:46:54;84.15;;;38.45;;
62844;SDS011;48929;47.910;20.390;2022-11-11T06:49:23;96.20;;;44.28;;
62844;SDS011;48929;47.910;20.390;2022-11-11T06:51:51;130.50;;;57.10;;
62844;SDS011;48929;47.910;20.390;2022-11-11T06:54:19;149.10;;;69.00;;
62844;SDS011;48929;47.910;20.390;2022-11-11T06:56:48;144.20;;;61.95;;
62844;SDS011;48929;47.910;20.390;2022-11-11T06:59:16;128.93;;;58.58;;
62844;SDS011;48929;47.910;20.390;2022-11-11T07:01:44;124.55;;;58.53;;
62844;SDS011;48929;47.910;20.390;2022-11-11T07:04:14;150.20;;;69.50;;
62844;SDS011;48929;47.910;20.390;2022-11-11T07:06:43;128.23;;;58.55;;
62844;SDS011;48929;47.910;20.390;2022-11-11T07:09:11;73.85;;;34.67;;
62844;SDS011;48929;47.910;20.390;2022-11-11T07:11:39;49.47;;;23.77;;
62844;SDS011;48929;47.910;20.390;2022-11-11T07:14:08;45.55;;;21.38;;
62844;SDS011;48929;47.910;20.390;2022-11-11T07:16:36;48.28;;;22.30;;
62844;SDS011;48929;47.910;20.390;2022-11-11T07:19:05;42.88;;;21.38;;
62844;SDS011;48929;47.910;20.390;2022-11-11T07:21:35;45.50;;;21.15;;
62844;SDS011;48929;47.910;20.390;2022-11-11T07:24:03;44.70;;;21.40;;
62844;SDS011;48929;47.910;20.390;2022-11-11T07:26:32;44.88;;;22.88;;
62844;SDS011;48929;47.910;20.390;2022-11-11T07:29:00;47.47;;;23.50;;
62844;SDS011;48929;47.910;20.390;2022-11-11T07:31:29;48.40;;;25.35;;
62844;SDS011;48929;47.910;20.390;2022-11-11T07:33:57;56.40;;;27.63;;
62844;SDS011;48929;47.910;20.390;2022-11-11T07:36:26;50.25;;;25.00;;
62844;SDS011;48929;47.910;20.390;2022-11-11T07:38:56;44.30;;;22.85;;
62844;SDS011;48929;47.910;20.390;2022-11-11T07:41:25;40.92;;;21.15;;
62844;SDS011;48929;47.910;20.390;2022-11-11T07:43:53;42.35;;;21.42;;
62844;SDS011;48929;47.910;20.390;2022-11-11T07:46:22;43.33;;;22.20;;
62844;SDS011;48929;47.910;20.390;2022-11-11T07:48:51;46.03;;;21.42;;
62844;SDS011;48929;47.910;20.390;2022-11-11T07:51:19;40.50;;;21.63;;
62844;SDS011;48929;47.910;20.390;2022-11-11T07:53:48;42.08;;;20.92;;
62844;SDS011;48929;47.910;20.390;2022-11-11T07:56:18;39.58;;;20.70;;
62844;SDS011;48929;47.910;20.390;2022-11-11T07:58:47;38.35;;;19.27;;
62844;SDS011;48929;47.910;20.390;2022-11-11T08:01:16;31.80;;;17.70;;
62844;SDS011;48929;47.910;20.390;2022-11-11T08:03:44;32.42;;;17.02;;
62844;SDS011;48929;47.910;20.390;2022-11-11T08:06:17;32.42;;;16.83;;
62844;SDS011;48929;47.910;20.390;2022-11-11T08:08:46;35.25;;;17.65;;
62844;SDS011;48929;47.910;20.390;2022-11-11T08:11:15;36.38;;;18.30;;
62844;SDS011;48929;47.910;20.390;2022-11-11T08:14:05;41.63;;;22.33;;
62844;SDS011;48929;47.910;20.390;2022-11-11T08:16:32;40.45;;;21.27;;
62844;SDS011;48929;47.910;20.390;2022-11-11T08:19:00;39.90;;;20.73;;
62844;SDS011;48929;47.910;20.390;2022-11-11T08:21:29;38.92;;;21.10;;
62844;SDS011;48929;47.910;20.390;2022-11-11T08:23:57;34.00;;;19.02;;
62844;SDS011;48929;47.910;20.390;2022-11-11T08:26:46;33.60;;;18.58;;
62844;SDS011;48929;47.910;20.390;2022-11-11T08:29:15;35.92;;;19.05;;
62844;SDS011;48929;47.910;20.390;2022-11-11T08:31:44;35.90;;;19.05;;
62844;SDS011;48929;47.910;20.390;2022-11-11T08:34:15;36.92;;;19.98;;
62844;SDS011;48929;47.910;20.390;2022-11-11T08:36:44;35.47;;;19.27;;
62844;SDS011;48929;47.910;20.390;2022-11-11T08:39:12;35.03;;;17.83;;
62844;SDS011;48929;47.910;20.390;2022-11-11T08:41:40;35.13;;;18.77;;
62844;SDS011;48929;47.910;20.390;2022-11-11T08:44:09;34.17;;;17.88;;
62844;SDS011;48929;47.910;20.390;2022-11-11T08:46:39;33.47;;;18.52;;
62844;SDS011;48929;47.910;20.390;2022-11-11T08:49:08;34.92;;;19.77;;
62844;SDS011;48929;47.910;20.390;2022-11-11T08:51:37;28.58;;;16.95;;
62844;SDS011;48929;47.910;20.390;2022-11-11T08:54:10;31.38;;;16.73;;
62844;SDS011;48929;47.910;20.390;2022-11-11T08:56:39;29.38;;;15.50;;
62844;SDS011;48929;47.910;20.390;2022-11-11T08:59:08;30.73;;;15.65;;
62844;SDS011;48929;47.910;20.390;2022-11-11T09:01:36;30.20;;;15.05;;
62844;SDS011;48929;47.910;20.390;2022-11-11T09:04:09;31.42;;;16.08;;
62844;SDS011;48929;47.910;20.390;2022-11-11T09:06:57;31.88;;;15.55;;
62844;SDS011;48929;47.910;20.390;2022-11-11T09:09:26;36.88;;;17.70;;
62844;SDS011;48929;47.910;20.390;2022-11-11T09:11:54;32.70;;;16.63;;
62844;SDS011;48929;47.910;20.390;2022-11-11T09:14:22;33.58;;;16.80;;
62844;SDS011;48929;47.910;20.390;2022-11-11T09:16:51;37.72;;;17.33;;
62844;SDS011;48929;47.910;20.390;2022-11-11T09:19:21;35.42;;;16.08;;
62844;SDS011;48929;47.910;20.390;2022-11-11T09:21:49;35.88;;;17.27;;
62844;SDS011;48929;47.910;20.390;2022-11-11T09:24:18;32.20;;;16.40;;
62844;SDS011;48929;47.910;20.390;2022-11-11T09:26:46;34.38;;;16.17;;
62844;SDS011;48929;47.910;20.390;2022-11-11T09:29:15;35.08;;;17.52;;
62844;SDS011;48929;47.910;20.390;2022-11-11T09:31:43;30.90;;;16.02;;
62844;SDS011;48929;47.910;20.390;2022-11-11T09:34:12;29.58;;;15.55;;
62844;SDS011;48929;47.910;20.390;2022-11-11T09:36:42;30.38;;;15.43;;
62844;SDS011;48929;47.910;20.390;2022-11-11T09:39:10;31.85;;;17.35;;
62844;SDS011;48929;47.910;20.390;2022-11-11T09:41:42;34.65;;;17.20;;
62844;SDS011;48929;47.910;20.390;2022-11-11T09:44:23;34.70;;;15.88;;
62844;SDS011;48929;47.910;20.390;2022-11-11T09:46:53;31.50;;;16.42;;
62844;SDS011;48929;47.910;20.390;2022-11-11T09:49:28;33.92;;;17.00;;
62844;SDS011;48929;47.910;20.390;2022-11-11T09:52:03;29.45;;;16.35;;
62844;SDS011;48929;47.910;20.390;2022-11-11T09:54:33;33.15;;;17.00;;
62844;SDS011;48929;47.910;20.390;2022-11-11T09:57:03;30.73;;;16.60;;
62844;SDS011;48929;47.910;20.390;2022-11-11T09:59:36;30.33;;;15.85;;
62844;SDS011;48929;47.910;20.390;2022-11-11T10:02:10;32.67;;;16.17;;
62844;SDS011;48929;47.910;20.390;2022-11-11T10:04:41;32.83;;;14.90;;
62844;SDS011;48929;47.910;20.390;2022-11-11T10:07:17;33.92;;;16.45;;
62844;SDS011;48929;47.910;20.390;2022-11-11T10:09:49;32.40;;;16.27;;
62844;SDS011;48929;47.910;20.390;2022-11-11T10:12:19;27.83;;;15.30;;
62844;SDS011;48929;47.910;20.390;2022-11-11T10:14:49;30.00;;;15.18;;
62844;SDS011;48929;47.910;20.390;2022-11-11T10:17:22;26.42;;;14.60;;
62844;SDS011;48929;47.910;20.390;2022-11-11T10:20:02;23.95;;;13.50;;
62844;SDS011;48929;47.910;20.390;2022-11-11T10:22:33;27.40;;;13.18;;
62844;SDS011;48929;47.910;20.390;2022-11-11T10:25:05;22.55;;;11.20;;
62844;SDS011;48929;47.910;20.390;2022-11-11T10:27:34;20.90;;;11.63;;
62844;SDS011;48929;47.910;20.390;2022-11-11T10:30:07;22.23;;;11.63;;
62844;SDS011;48929;47.910;20.390;2022-11-11T10:32:41;23.20;;;11.43;;
62844;SDS011;48929;47.910;20.390;2022-11-11T10:35:12;18.73;;;11.00;;
62844;SDS011;48929;47.910;20.390;2022-11-11T10:37:44;17.73;;;10.13;;
62844;SDS011;48929;47.910;20.390;2022-11-11T10:40:15;18.02;;;9.73;;
62844;SDS011;48929;47.910;20.390;2022-11-11T10:42:48;17.30;;;8.90;;
62844;SDS011;48929;47.910;20.390;2022-11-11T10:45:19;17.10;;;8.80;;
62844;SDS011;48929;47.910;20.390;2022-11-11T10:47:51;15.48;;;8.48;;
62844;SDS011;48929;47.910;20.390;2022-11-11T10:50:22;16.42;;;8.32;;
62844;SDS011;48929;47.910;20.390;2022-11-11T10:52:59;17.73;;;8.98;;
62844;SDS011;48929;47.910;20.390;2022-11-11T10:55:31;18.70;;;9.73;;
62844;SDS011;48929;47.910;20.390;2022-11-11T10:58:04;19.52;;;9.88;;
62844;SDS011;48929;47.910;20.390;2022-11-11T11:00:34;22.02;;;11.40;;
62844;SDS011;48929;47.910;20.390;2022-11-11T11:03:11;20.30;;;11.40;;
62844;SDS011;48929;47.910;20.390;2022-11-11T11:05:41;22.95;;;11.63;;
62844;SDS011;48929;47.910;20.390;2022-11-11T11:08:15;22.33;;;11.80;;
62844;SDS011;48929;47.910;20.390;2022-11-11T11:10:44;20.00;;;10.23;;
62844;SDS011;48929;47.910;20.390;2022-11-11T11:13:15;21.25;;;10.50;;
62844;SDS011;48929;47.910;20.390;2022-11-11T11:15:45;21.70;;;10.68;;
62844;SDS011;48929;47.910;20.390;2022-11-11T11:18:15;20.92;;;10.88;;
62844;SDS011;48929;47.910;20.390;2022-11-11T11:20:54;20.38;;;11.00;;
62844;SDS011;48929;47.910;20.390;2022-11-11T11:23:35;18.27;;;9.35;;
62844;SDS011;48929;47.910;20.390;2022-11-11T11:26:04;17.02;;;9.13;;
62844;SDS011;48929;47.910;20.390;2022-11-11T11:28:33;17.92;;;9.25;;
62844;SDS011;48929;47.910;20.390;2022-11-11T11:31:02;18.80;;;9.80;;
62844;SDS011;48929;47.910;20.390;2022-11-11T11:33:49;14.95;;;8.90;;
62844;SDS011;48929;47.910;20.390;2022-11-11T11:36:17;19.30;;;10.07;;
62844;SDS011;48929;47.910;20.390;2022-11-11T11:38:48;20.08;;;9.70;;
62844;SDS011;48929;47.910;20.390;2022-11-11T11:41:17;16.33;;;9.27;;
62844;SDS011;48929;47.910;20.390;2022-11-11T11:44:02;20.98;;;10.02;;
62844;SDS011;48929;47.910;20.390;2022-11-11T11:46:33;17.80;;;9.60;;
62844;SDS011;48929;47.910;20.390;2022-11-11T11:49:08;18.80;;;10.10;;
62844;SDS011;48929;47.910;20.390;2022-11-11T11:51:38;19.25;;;9.70;;
62844;SDS011;48929;47.910;20.390;2022-11-11T11:54:14;20.73;;;10.07;;
62844;SDS011;48929;47.910;20.390;2022-11-11T11:56:45;19.30;;;9.95;;
62844;SDS011;48929;47.910;20.390;2022-11-11T11:59:19;19.42;;;9.93;;
62844;SDS011;48929;47.910;20.390;2022-11-11T12:01:51;17.60;;;10.02;;
62844;SDS011;48929;47.910;20.390;2022-11-11T12:04:23;16.92;;;10.18;;
62844;SDS011;48929;47.910;20.390;2022-11-11T12:06:57;17.40;;;9.68;;
62844;SDS011;48929;47.910;20.390;2022-11-11T12:09:33;17.20;;;9.52;;
62844;SDS011;48929;47.910;20.390;2022-11-11T12:12:08;16.27;;;9.38;;
62844;SDS011;48929;47.910;20.390;2022-11-11T12:14:44;13.98;;;8.00;;
62844;SDS011;48929;47.910;20.390;2022-11-11T12:17:23;16.60;;;8.55;;
62844;SDS011;48929;47.910;20.390;2022-11-11T12:19:59;15.63;;;8.10;;
62844;SDS011;48929;47.910;20.390;2022-11-11T12:22:34;13.68;;;7.75;;
62844;SDS011;48929;47.910;20.390;2022-11-11T12:25:15;13.70;;;7.07;;
62844;SDS011;48929;47.910;20.390;2022-11-11T12:27:47;11.18;;;6.40;;
62844;SDS011;48929;47.910;20.390;2022-11-11T12:30:20;15.43;;;7.20;;
62844;SDS011;48929;47.910;20.390;2022-11-11T12:35:44;13.85;;;7.00;;
62844;SDS011;48929;47.910;20.390;2022-11-11T12:38:21;12.23;;;6.95;;
62844;SDS011;48929;47.910;20.390;2022-11-11T12:40:56;12.73;;;7.25;;
62844;SDS011;48929;47.910;20.390;2022-11-11T12:43:30;12.95;;;6.53;;
62844;SDS011;48929;47.910;20.390;2022-11-11T12:46:03;11.13;;;6.63;;
62844;SDS011;48929;47.910;20.390;2022-11-11T12:48:37;13.00;;;6.68;;
62844;SDS011;48929;47.910;20.390;2022-11-11T12:51:10;12.50;;;6.15;;
62844;SDS011;48929;47.910;20.390;2022-11-11T12:53:44;10.82;;;5.80;;
62844;SDS011;48929;47.910;20.390;2022-11-11T12:56:18;10.77;;;5.70;;
62844;SDS011;48929;47.910;20.390;2022-11-11T12:58:52;10.10;;;6.13;;
62844;SDS011;48929;47.910;20.390;2022-11-11T13:01:27;10.68;;;6.55;;
62844;SDS011;48929;47.910;20.390;2022-11-11T13:04:12;14.10;;;6.97;;
62844;SDS011;48929;47.910;20.390;2022-11-11T13:06:52;13.18;;;6.65;;
62844;SDS011;48929;47.910;20.390;2022-11-11T13:09:36;13.95;;;7.10;;
62844;SDS011;48929;47.910;20.390;2022-11-11T13:12:09;14.68;;;6.65;;
62844;SDS011;48929;47.910;20.390;2022-11-11T13:14:47;12.60;;;7.05;;
62844;SDS011;48929;47.910;20.390;2022-11-11T13:17:16;13.10;;;8.10;;
62844;SDS011;48929;47.910;20.390;2022-11-11T13:19:47;12.15;;;6.70;;
62844;SDS011;48929;47.910;20.390;2022-11-11T13:22:20;13.55;;;6.80;;
62844;SDS011;48929;47.910;20.390;2022-11-11T13:24:49;12.52;;;6.50;;
62844;SDS011;48929;47.910;20.390;2022-11-11T13:27:24;13.93;;;6.55;;
62844;SDS011;48929;47.910;20.390;2022-11-11T13:30:03;13.45;;;6.63;;
62844;SDS011;48929;47.910;20.390;2022-11-11T13:32:34;16.10;;;7.97;;
62844;SDS011;48929;47.910;20.390;2022-11-11T13:35:11;11.85;;;6.72;;
62844;SDS011;48929;47.910;20.390;2022-11-11T13:37:40;11.95;;;6.88;;
62844;SDS011;48929;47.910;20.390;2022-11-11T13:40:23;12.77;;;6.80;;
62844;SDS011;48929;47.910;20.390;2022-11-11T13:42:56;12.77;;;7.22;;
62844;SDS011;48929;47.910;20.390;2022-11-11T13:45:26;13.77;;;6.53;;
62844;SDS011;48929;47.910;20.390;2022-11-11T13:47:55;13.32;;;7.10;;
62844;SDS011;48929;47.910;20.390;2022-11-11T13:50:26;15.40;;;7.60;;
62844;SDS011;48929;47.910;20.390;2022-11-11T13:52:55;14.13;;;6.90;;
62844;SDS011;48929;47.910;20.390;2022-11-11T13:55:27;13.20;;;7.32;;
62844;SDS011;48929;47.910;20.390;2022-11-11T13:57:58;14.98;;;8.40;;
62844;SDS011;48929;47.910;20.390;2022-11-11T14:00:28;16.02;;;8.80;;
62844;SDS011;48929;47.910;20.390;2022-11-11T14:05:48;15.52;;;8.27;;
62844;SDS011;48929;47.910;20.390;2022-11-11T14:08:51;15.43;;;8.43;;
62844;SDS011;48929;47.910;20.390;2022-11-11T14:11:26;17.25;;;8.95;;
62844;SDS011;48929;47.910;20.390;2022-11-11T14:13:56;16.08;;;8.82;;
62844;SDS011;48929;47.910;20.390;2022-11-11T14:22:22;17.98;;;9.15;;
62844;SDS011;48929;47.910;20.390;2022-11-11T14:24:56;19.13;;;10.30;;
62844;SDS011;48929;47.910;20.390;2022-11-11T14:27:36;18.40;;;10.90;;
62844;SDS011;48929;47.910;20.390;2022-11-11T14:30:12;21.65;;;11.50;;
62844;SDS011;48929;47.910;20.390;2022-11-11T14:32:54;23.20;;;11.10;;
62844;SDS011;48929;47.910;20.390;2022-11-11T14:35:28;21.60;;;11.05;;
62844;SDS011;48929;47.910;20.390;2022-11-11T14:38:13;19.30;;;10.20;;
62844;SDS011;48929;47.910;20.390;2022-11-11T14:40:46;19.92;;;10.40;;
62844;SDS011;48929;47.910;20.390;2022-11-11T14:43:34;22.33;;;11.20;;
62844;SDS011;48929;47.910;20.390;2022-11-11T14:46:04;24.65;;;11.00;;
62844;SDS011;48929;47.910;20.390;2022-11-11T14:48:53;20.27;;;10.48;;
62844;SDS011;48929;47.910;20.390;2022-11-11T14:51:41;21.92;;;10.68;;
62844;SDS011;48929;47.910;20.390;2022-11-11T14:54:20;22.73;;;10.57;;